Terminal Aerodrome Forecast
Issued by NWS Austin/San Antonio, TX

Home | Current Version | Previous Version | Text Only | Print | Product List | Glossary On
Versions: 1 2 3 4 5 6 7 8 9 10 11 12 13 14 15 16 17 18 19
000
FTUS44 KEWX 282300
TAFDRT
TAF
KDRT 282333Z 2900/2924 12006KT P6SM SKC
     FM290900 11006KT P6SM SCT010
     FM291100 11006KT 3SM BR OVC007
     FM291500 14007KT P6SM BKN015
     FM291900 14009KT P6SM FEW020=

USA.gov is the U.S. government's official web portal to all federal, state and local government web resources and services.